createdAt,value
2023-05-13T00:00:46.170Z,93.22
2023-05-13T00:01:46.158Z,93.32
2023-05-13T00:02:46.172Z,93.32
2023-05-13T00:03:46.171Z,93.32
2023-05-13T00:04:46.053Z,93.32
2023-05-13T00:05:46.129Z,93.32
2023-05-13T00:06:46.050Z,93.32
2023-05-13T00:07:46.048Z,93.43
2023-05-13T00:08:46.052Z,93.52
2023-05-13T00:09:46.208Z,93.52
2023-05-13T00:10:45.988Z,93.63
2023-05-13T00:11:46.236Z,93.73
2023-05-13T00:12:46.154Z,93.73
2023-05-13T00:13:45.993Z,93.77
2023-05-13T00:14:45.939Z,93.88
2023-05-13T00:15:46.033Z,93.88
2023-05-13T00:16:46.009Z,93.98
2023-05-13T00:17:46.052Z,93.88
2023-05-13T00:18:45.912Z,93.88
2023-05-13T00:19:45.927Z,93.98
2023-05-13T00:20:46.123Z,93.98
2023-05-13T00:21:45.942Z,94.08
2023-05-13T00:22:45.929Z,94.08
2023-05-13T00:23:45.848Z,94.08
2023-05-13T00:24:46.050Z,94.08
2023-05-13T00:25:45.892Z,94.08
2023-05-13T00:26:45.854Z,94.18
2023-05-13T00:27:45.821Z,94.18
2023-05-13T00:28:45.975Z,94.18
2023-05-13T00:29:45.783Z,94.18
2023-05-13T00:30:45.927Z,94.18
2023-05-13T00:31:45.816Z,94.08
2023-05-13T00:32:46.051Z,94.08
2023-05-13T00:33:45.721Z,93.98
2023-05-13T00:34:45.926Z,93.98
2023-05-13T00:35:45.682Z,93.92
2023-05-13T00:36:45.726Z,93.92
2023-05-13T00:37:45.683Z,93.82
2023-05-13T00:38:45.696Z,93.82
2023-05-13T00:39:45.699Z,93.71
2023-05-13T00:40:45.811Z,93.71
2023-05-13T00:41:45.604Z,93.71
2023-05-13T00:42:45.632Z,93.62
2023-05-13T00:43:45.655Z,93.62
2023-05-13T00:44:45.757Z,93.62
2023-05-13T00:45:45.676Z,93.66
2023-05-13T00:46:45.640Z,93.76
2023-05-13T00:47:45.691Z,94.07
2023-05-13T00:48:45.585Z,94.17
2023-05-13T00:49:45.582Z,94.27
2023-05-13T00:50:45.600Z,94.37
2023-05-13T00:51:45.767Z,94.37
2023-05-13T00:52:45.559Z,94.37
2023-05-13T00:53:45.581Z,94.48
2023-05-13T00:54:45.495Z,94.48
2023-05-13T00:55:45.498Z,94.48
2023-05-13T00:56:45.671Z,94.48
2023-05-13T00:57:45.424Z,94.48
2023-05-13T00:58:45.520Z,94.62
2023-05-13T00:59:45.425Z,94.52
2023-05-13T01:00:45.430Z,94.62
2023-05-13T01:01:45.612Z,94.52
2023-05-13T01:02:45.471Z,94.52
2023-05-13T01:03:45.362Z,94.52
2023-05-13T01:04:45.416Z,94.56
2023-05-13T01:05:45.354Z,94.56
2023-05-13T01:06:45.376Z,94.56
2023-05-13T01:07:45.337Z,94.67
2023-05-13T01:08:45.341Z,94.67
2023-05-13T01:09:45.355Z,94.77
2023-05-13T01:10:45.298Z,94.77
2023-05-13T01:11:45.354Z,94.92
2023-05-13T01:12:45.360Z,95.12
2023-05-13T01:13:45.293Z,95.23
2023-05-13T01:14:45.325Z,95.43
2023-05-13T01:15:45.254Z,95.53
2023-05-13T01:16:45.271Z,95.64
2023-05-13T01:17:45.197Z,95.74
2023-05-13T01:18:45.306Z,95.74
2023-05-13T01:19:45.230Z,95.84
2023-05-13T01:20:45.260Z,95.84
2023-05-13T01:21:45.166Z,95.94
2023-05-13T01:22:45.155Z,95.98
2023-05-13T01:23:45.158Z,95.98
2023-05-13T01:24:45.222Z,95.98
2023-05-13T01:25:45.152Z,95.98
2023-05-13T01:26:45.155Z,95.98
2023-05-13T01:27:45.084Z,95.98
2023-05-13T01:28:45.110Z,96.03
2023-05-13T01:29:45.078Z,96.14
2023-05-13T01:30:45.137Z,96.23
2023-05-13T01:31:45.191Z,96.23
2023-05-13T01:32:45.205Z,96.23
2023-05-13T01:33:45.038Z,96.23
2023-05-13T01:34:45.046Z,96.34
2023-05-13T01:35:45.013Z,96.34
2023-05-13T01:36:45.085Z,96.34
2023-05-13T01:37:45.012Z,96.39
2023-05-13T01:38:45.020Z,96.39
2023-05-13T01:39:44.983Z,96.48
2023-05-13T01:40:44.991Z,96.48
2023-05-13T01:41:44.965Z,96.59
2023-05-13T01:42:44.986Z,96.80
2023-05-13T01:43:44.908Z,97.00
2023-05-13T01:44:44.951Z,97.20
2023-05-13T01:45:44.873Z,97.31
2023-05-13T01:46:44.953Z,97.41
2023-05-13T01:47:44.982Z,97.41
2023-05-13T01:48:44.868Z,97.41
2023-05-13T01:49:44.845Z,97.52
2023-05-13T01:50:44.919Z,97.41
2023-05-13T01:51:44.827Z,97.31
2023-05-13T01:52:44.921Z,97.31
2023-05-13T01:53:44.804Z,97.36
2023-05-13T01:54:44.851Z,97.45
2023-05-13T01:55:44.819Z,97.66
2023-05-13T01:56:44.793Z,97.82
2023-05-13T01:57:44.777Z,97.82
2023-05-13T01:58:44.790Z,97.92
2023-05-13T01:59:44.724Z,97.92
2023-05-13T02:00:44.785Z,97.92
2023-05-13T02:01:44.746Z,97.87
2023-05-13T02:02:44.878Z,97.87
2023-05-13T02:03:44.808Z,97.77
2023-05-13T02:04:44.688Z,97.77
2023-05-13T02:05:44.712Z,97.66
2023-05-13T02:06:44.669Z,97.66
2023-05-13T02:07:44.660Z,97.66
2023-05-13T02:08:44.706Z,97.81
2023-05-13T02:09:44.689Z,97.77
2023-05-13T02:10:44.639Z,97.91
2023-05-13T02:11:44.676Z,97.91
2023-05-13T02:12:44.738Z,97.91
2023-05-13T02:13:44.665Z,97.91
2023-05-13T02:14:44.694Z,97.91
2023-05-13T02:15:44.570Z,97.91
2023-05-13T02:16:44.576Z,97.91
2023-05-13T02:17:44.658Z,98.02
2023-05-13T02:18:44.681Z,98.02
2023-05-13T02:19:44.569Z,98.02
2023-05-13T02:20:44.516Z,98.06
2023-05-13T02:21:44.550Z,97.96
2023-05-13T02:22:44.531Z,97.96
2023-05-13T02:23:44.454Z,98.06
2023-05-13T02:24:44.479Z,97.96
2023-05-13T02:25:44.507Z,97.96
2023-05-13T02:26:44.459Z,97.96
2023-05-13T02:27:44.417Z,98.06
2023-05-13T02:28:44.465Z,98.06
2023-05-13T02:29:44.423Z,98.06
2023-05-13T02:30:44.400Z,98.06
2023-05-13T02:31:44.418Z,98.06
2023-05-13T02:32:44.485Z,98.06
2023-05-13T02:33:44.671Z,98.16
2023-05-13T02:34:44.747Z,98.11
2023-05-13T02:35:44.341Z,98.21
2023-05-13T02:36:44.337Z,98.32
2023-05-13T02:37:44.329Z,98.32
2023-05-13T02:38:44.416Z,98.32
2023-05-13T02:39:44.284Z,98.32
2023-05-13T02:40:44.276Z,98.32
2023-05-13T02:41:44.353Z,98.32
2023-05-13T02:42:44.274Z,98.21
2023-05-13T02:43:44.266Z,98.21
2023-05-13T02:44:44.287Z,98.21
2023-05-13T02:45:44.237Z,98.11
2023-05-13T02:46:44.286Z,98.21
2023-05-13T02:47:44.249Z,98.32
2023-05-13T02:48:44.208Z,98.32
2023-05-13T02:49:44.241Z,98.42
2023-05-13T02:50:44.216Z,98.32
2023-05-13T02:51:44.238Z,98.32
2023-05-13T02:52:44.157Z,98.32
2023-05-13T02:53:44.162Z,98.32
2023-05-13T02:54:44.221Z,98.36
2023-05-13T02:55:44.140Z,98.36
2023-05-13T02:56:44.279Z,98.36
2023-05-13T02:57:44.142Z,98.36
2023-05-13T02:58:44.116Z,98.36
2023-05-13T02:59:44.089Z,98.36
2023-05-13T03:00:44.157Z,98.36
2023-05-13T03:01:44.165Z,98.36
2023-05-13T03:02:44.118Z,98.36
2023-05-13T03:03:44.068Z,98.46
2023-05-13T03:04:44.005Z,98.46
2023-05-13T03:05:44.041Z,98.46
2023-05-13T03:06:44.035Z,98.46
2023-05-13T03:07:43.992Z,98.46
2023-05-13T03:08:44.050Z,98.46
2023-05-13T03:09:43.952Z,98.50
2023-05-13T03:10:44.036Z,98.50
2023-05-13T03:11:43.970Z,98.50
2023-05-13T03:12:43.942Z,98.50
2023-05-13T03:13:43.938Z,98.50
2023-05-13T03:14:44.126Z,98.50
2023-05-13T03:15:44.529Z,98.50
2023-05-13T03:16:43.910Z,98.50
2023-05-13T03:17:43.876Z,98.50
2023-05-13T03:18:43.980Z,98.50
2023-05-13T03:19:43.822Z,98.50
2023-05-13T03:20:43.972Z,98.50
2023-05-13T03:21:43.832Z,98.50
2023-05-13T03:22:43.829Z,98.50
2023-05-13T03:23:43.780Z,98.41
2023-05-13T03:24:43.856Z,98.50
2023-05-13T03:25:43.804Z,98.61
2023-05-13T03:26:43.877Z,98.61
2023-05-13T03:27:43.738Z,98.61
2023-05-13T03:28:43.782Z,98.61
2023-05-13T03:29:43.748Z,98.71
2023-05-13T03:30:43.774Z,98.61
2023-05-13T03:31:43.878Z,98.71
2023-05-13T03:32:43.756Z,98.71
2023-05-13T03:33:43.751Z,98.71
2023-05-13T03:34:43.682Z,98.71
2023-05-13T03:35:43.888Z,98.71
2023-05-13T03:36:43.665Z,98.71
2023-05-13T03:37:43.739Z,98.71
2023-05-13T03:38:43.697Z,98.71
2023-05-13T03:39:43.602Z,98.71
2023-05-13T03:40:43.734Z,98.71
2023-05-13T03:41:43.579Z,98.71
2023-05-13T03:42:43.590Z,98.71
2023-05-13T03:43:43.618Z,98.71
2023-05-13T03:44:43.609Z,98.71
2023-05-13T03:45:43.535Z,98.71
2023-05-13T03:46:43.728Z,98.71
2023-05-13T03:47:43.581Z,98.71
2023-05-13T03:48:43.519Z,98.71
2023-05-13T03:49:43.570Z,98.82
2023-05-13T03:50:43.525Z,98.82
2023-05-13T03:51:43.466Z,98.82
2023-05-13T03:52:45.524Z,98.82
2023-05-13T03:53:43.460Z,98.82
2023-05-13T03:54:43.526Z,98.92
2023-05-13T03:55:43.751Z,98.92
2023-05-13T03:56:43.461Z,98.97
2023-05-13T03:57:43.391Z,98.97
2023-05-13T03:58:43.411Z,98.97
2023-05-13T03:59:43.454Z,98.97
2023-05-13T04:00:43.413Z,98.97
2023-05-13T04:01:43.363Z,98.97
2023-05-13T04:02:43.648Z,99.08
2023-05-13T04:03:43.398Z,98.97
2023-05-13T04:04:43.517Z,98.97
2023-05-13T04:05:43.362Z,98.93
2023-05-13T04:06:43.305Z,98.83
2023-05-13T04:07:43.294Z,98.83
2023-05-13T04:08:43.289Z,98.83
2023-05-13T04:09:43.321Z,98.72
2023-05-13T04:10:43.401Z,98.72
2023-05-13T04:11:43.235Z,98.72
2023-05-13T04:12:43.375Z,98.72
2023-05-13T04:13:43.203Z,98.62
2023-05-13T04:14:43.277Z,98.62
2023-05-13T04:15:43.223Z,98.62
2023-05-13T04:16:43.563Z,98.58
2023-05-13T04:17:43.213Z,98.47
2023-05-13T04:18:43.222Z,98.47
2023-05-13T04:19:43.145Z,98.47
2023-05-13T04:20:43.162Z,98.37
2023-05-13T04:21:43.148Z,98.37
2023-05-13T04:22:43.128Z,98.27
2023-05-13T04:23:43.112Z,98.27
2023-05-13T04:24:43.147Z,98.27
2023-05-13T04:25:43.110Z,98.12
2023-05-13T04:26:43.098Z,98.12
2023-05-13T04:27:43.083Z,98.02
2023-05-13T04:28:43.125Z,98.02
2023-05-13T04:29:43.099Z,97.91
2023-05-13T04:30:43.083Z,97.81
2023-05-13T04:31:43.048Z,97.71
2023-05-13T04:32:43.123Z,97.61
2023-05-13T04:33:43.007Z,97.50
2023-05-13T04:34:43.034Z,97.40
2023-05-13T04:35:43.464Z,97.40
2023-05-13T04:36:43.112Z,97.30
2023-05-13T04:37:43.125Z,97.30
2023-05-13T04:38:42.964Z,97.19
2023-05-13T04:39:42.926Z,97.19
2023-05-13T04:40:42.924Z,97.09
2023-05-13T04:41:42.905Z,97.09
2023-05-13T04:42:42.974Z,96.99
2023-05-13T04:43:42.903Z,96.99
2023-05-13T04:44:42.896Z,96.99
2023-05-13T04:45:42.873Z,96.89
2023-05-13T04:46:42.884Z,96.89
2023-05-13T04:47:43.091Z,96.89
2023-05-13T04:48:42.901Z,96.84
2023-05-13T04:49:42.954Z,96.84
2023-05-13T04:50:42.804Z,96.73
2023-05-13T04:51:42.819Z,96.73
2023-05-13T04:52:43.170Z,96.73
2023-05-13T04:53:42.922Z,96.59
2023-05-13T04:54:42.810Z,96.48
2023-05-13T04:55:42.763Z,96.39
2023-05-13T04:56:42.798Z,96.23
2023-05-13T04:57:42.757Z,96.14
2023-05-13T04:58:42.712Z,95.78
2023-05-13T04:59:42.766Z,95.47
2023-05-13T05:00:42.702Z,95.06
2023-05-13T05:01:42.754Z,94.71
2023-05-13T05:02:42.802Z,93.99
2023-05-13T05:03:42.722Z,93.33
2023-05-13T05:04:42.728Z,92.61
2023-05-13T05:05:42.654Z,92.10
2023-05-13T05:06:42.645Z,91.90
2023-05-13T05:07:42.629Z,91.65
2023-05-13T05:08:42.571Z,91.44
2023-05-13T05:09:42.642Z,91.14
2023-05-13T05:10:42.556Z,90.48
2023-05-13T05:11:42.591Z,90.28
2023-05-13T05:12:42.552Z,89.97
2023-05-13T05:13:42.557Z,89.56
2023-05-13T05:14:42.529Z,89.25
2023-05-13T05:15:42.544Z,89.25
2023-05-13T05:16:42.492Z,89.00
2023-05-13T05:17:42.640Z,88.70
2023-05-13T05:18:42.503Z,88.49
2023-05-13T05:19:42.479Z,88.18
2023-05-13T05:20:42.430Z,87.73
2023-05-13T05:21:42.464Z,87.53
2023-05-13T05:22:42.436Z,87.32
2023-05-13T05:23:42.431Z,87.43
2023-05-13T05:24:42.406Z,87.18
2023-05-13T05:25:42.419Z,86.77
2023-05-13T05:26:42.936Z,86.46
2023-05-13T05:27:42.423Z,86.16
2023-05-13T05:28:42.343Z,85.64
2023-05-13T05:29:42.370Z,85.44
2023-05-13T05:30:42.329Z,85.64
2023-05-13T05:31:42.888Z,85.50
2023-05-13T05:32:42.347Z,85.61
2023-05-13T05:33:42.302Z,85.71
2023-05-13T05:34:42.332Z,85.81
2023-05-13T05:35:42.328Z,85.91
2023-05-13T05:36:42.267Z,85.67
2023-05-13T05:37:42.466Z,85.57
2023-05-13T05:38:42.286Z,85.67
2023-05-13T05:39:42.245Z,85.47
2023-05-13T05:40:42.227Z,85.36
2023-05-13T05:41:42.213Z,85.16
2023-05-13T05:42:42.190Z,85.02
2023-05-13T05:43:42.220Z,84.91
2023-05-13T05:44:42.157Z,84.91
2023-05-13T05:45:42.305Z,84.77
2023-05-13T05:46:42.126Z,84.88
2023-05-13T05:47:42.263Z,84.88
2023-05-13T05:48:42.142Z,84.53
2023-05-13T05:49:42.131Z,84.01
2023-05-13T05:50:42.112Z,83.57
2023-05-13T05:51:42.119Z,83.26
2023-05-13T05:52:42.078Z,83.57
2023-05-13T05:53:42.144Z,82.65
2023-05-13T05:54:42.052Z,82.41
2023-05-13T05:55:42.104Z,82.71
2023-05-13T05:56:42.032Z,82.41
2023-05-13T05:57:42.071Z,81.90
2023-05-13T05:58:42.127Z,81.96
2023-05-13T05:59:42.034Z,81.86
2023-05-13T06:00:41.984Z,81.96
2023-05-13T06:01:41.985Z,81.66
2023-05-13T06:02:42.003Z,81.62
2023-05-13T06:03:42.071Z,81.82
2023-05-13T06:04:42.025Z,81.41
2023-05-13T06:05:41.966Z,81.52
2023-05-13T06:06:42.044Z,81.38
2023-05-13T06:07:41.925Z,81.38
2023-05-13T06:08:41.893Z,80.87
2023-05-13T06:09:41.962Z,80.36
2023-05-13T06:10:41.894Z,80.56
2023-05-13T06:11:41.880Z,80.32
2023-05-13T06:12:41.879Z,80.32
2023-05-13T06:13:41.893Z,80.02
2023-05-13T06:14:41.861Z,79.91
2023-05-13T06:15:41.912Z,79.30
2023-05-13T06:16:41.875Z,79.20
2023-05-13T06:17:41.988Z,79.06
2023-05-13T06:18:41.803Z,78.35
2023-05-13T06:19:42.067Z,77.84
2023-05-13T06:20:41.755Z,77.84
2023-05-13T06:21:41.811Z,77.70
2023-05-13T06:22:41.781Z,78.01
2023-05-13T06:23:41.761Z,77.91
2023-05-13T06:24:42.301Z,77.47
2023-05-13T06:25:41.723Z,77.47
2023-05-13T06:26:41.718Z,77.26
2023-05-13T06:27:41.709Z,76.95
2023-05-13T06:28:41.665Z,76.72
2023-05-13T06:29:41.734Z,77.02
2023-05-13T06:30:41.642Z,77.12
2023-05-13T06:31:41.738Z,77.63
2023-05-13T06:32:53.538Z,77.70
2023-05-13T06:33:42.639Z,77.09
2023-05-13T06:34:41.624Z,77.09
2023-05-13T06:35:41.599Z,77.25
2023-05-13T06:36:41.561Z,77.25
2023-05-13T06:37:41.589Z,76.44
2023-05-13T06:38:41.791Z,76.51
2023-05-13T06:39:41.670Z,76.20
2023-05-13T06:40:41.551Z,76.40
2023-05-13T06:41:41.541Z,75.09
2023-05-13T06:42:41.508Z,74.44
2023-05-13T06:43:41.531Z,74.44
2023-05-13T06:44:41.484Z,74.14
2023-05-13T06:45:41.592Z,73.93
2023-05-13T06:46:41.585Z,73.60
2023-05-13T06:47:41.533Z,73.09
2023-05-13T06:48:41.456Z,73.19
2023-05-13T06:49:41.755Z,72.85
2023-05-13T06:50:41.415Z,73.05
2023-05-13T06:51:41.432Z,73.22
2023-05-13T06:52:42.060Z,73.02
2023-05-13T06:53:41.453Z,72.99
2023-05-13T06:54:41.480Z,72.28
2023-05-13T06:55:41.723Z,69.74
2023-05-13T06:56:41.339Z,69.21
2023-05-13T06:57:43.290Z,67.79
2023-05-13T06:58:41.316Z,66.64
2023-05-13T06:59:42.826Z,66.85
2023-05-13T07:00:41.359Z,65.94
2023-05-13T07:01:41.349Z,65.03
2023-05-13T07:02:41.313Z,64.52
2023-05-13T07:03:41.336Z,64.19
2023-05-13T07:04:41.264Z,64.09
2023-05-13T07:05:41.293Z,64.09
2023-05-13T07:06:41.245Z,64.70
2023-05-13T07:07:41.272Z,65.00
2023-05-13T07:08:41.213Z,64.49
2023-05-13T07:09:41.236Z,65.07
2023-05-13T07:10:41.188Z,63.55
2023-05-13T07:11:41.229Z,63.25
2023-05-13T07:12:41.173Z,63.85
2023-05-13T07:13:41.257Z,63.65
2023-05-13T07:14:41.151Z,63.42
2023-05-13T07:15:41.156Z,62.11
2023-05-13T07:16:41.142Z,63.02
2023-05-13T07:17:41.287Z,61.71
2023-05-13T07:18:41.229Z,62.01
2023-05-13T07:19:41.262Z,62.82
2023-05-13T07:20:41.525Z,63.29
2023-05-13T07:21:41.134Z,62.48
2023-05-13T07:22:41.099Z,62.28
2023-05-13T07:23:43.033Z,61.95
2023-05-13T07:24:41.028Z,59.83
2023-05-13T07:25:41.133Z,60.44
2023-05-13T07:26:41.003Z,59.53
2023-05-13T07:27:41.113Z,58.49
2023-05-13T07:28:41.033Z,58.80
2023-05-13T07:29:41.084Z,57.18
2023-05-13T07:30:40.993Z,58.39
2023-05-13T07:31:40.968Z,57.89
2023-05-13T07:32:40.955Z,57.98
2023-05-13T07:33:41.001Z,58.09
2023-05-13T07:34:40.948Z,58.36
2023-05-13T07:35:40.948Z,57.86
2023-05-13T07:36:40.879Z,58.26
2023-05-13T07:37:40.920Z,57.35
2023-05-13T07:38:40.911Z,58.56
2023-05-13T07:39:40.864Z,57.76
2023-05-13T07:40:40.871Z,57.05
2023-05-13T07:41:40.891Z,57.35
2023-05-13T07:42:40.829Z,57.83
2023-05-13T07:43:40.916Z,57.53
2023-05-13T07:44:40.792Z,56.72
2023-05-13T07:45:40.865Z,57.83
2023-05-13T07:46:40.832Z,56.52
2023-05-13T07:47:43.004Z,57.10
2023-05-13T07:48:40.748Z,56.70
2023-05-13T07:49:40.793Z,57.00
2023-05-13T07:50:40.737Z,56.60
2023-05-13T07:51:40.742Z,55.59
2023-05-13T07:52:40.752Z,55.66
2023-05-13T07:53:40.711Z,55.76
2023-05-13T07:54:40.709Z,55.36
2023-05-13T07:55:40.707Z,55.56
2023-05-13T07:56:40.668Z,55.96
2023-05-13T07:57:40.683Z,55.36
2023-05-13T07:58:40.635Z,55.06
2023-05-13T07:59:41.794Z,56.27
2023-05-13T08:00:40.871Z,56.07
2023-05-13T08:01:40.836Z,56.27
2023-05-13T08:02:40.891Z,56.67
2023-05-13T08:03:40.717Z,56.70
2023-05-13T08:04:40.667Z,56.70
2023-05-13T08:05:40.668Z,56.29
2023-05-13T08:06:40.559Z,56.70
2023-05-13T08:07:40.575Z,57.10
2023-05-13T08:08:40.513Z,57.00
2023-05-13T08:09:40.538Z,57.40
2023-05-13T08:10:40.510Z,56.80
2023-05-13T08:11:40.533Z,57.00
2023-05-13T08:12:40.489Z,57.40
2023-05-13T08:13:40.530Z,56.67
2023-05-13T08:14:40.449Z,56.47
2023-05-13T08:15:40.600Z,54.25
2023-05-13T08:16:40.483Z,56.37
2023-05-13T08:17:40.505Z,55.23
2023-05-13T08:18:40.450Z,54.03
2023-05-13T08:19:40.459Z,54.33
2023-05-13T08:20:40.393Z,54.50
2023-05-13T08:21:40.403Z,54.91
2023-05-13T08:22:40.670Z,55.61
2023-05-13T08:23:44.692Z,53.67
2023-05-13T08:24:41.337Z,53.07
2023-05-13T08:25:40.446Z,52.26
2023-05-13T08:26:40.312Z,52.64
2023-05-13T08:27:40.382Z,53.14
2023-05-13T08:28:40.330Z,52.34
2023-05-13T08:29:40.385Z,52.64
2023-05-13T08:30:40.263Z,53.75
2023-05-13T08:31:40.289Z,53.72
2023-05-13T08:32:40.298Z,53.92
2023-05-13T08:33:40.314Z,54.22
2023-05-13T08:34:40.248Z,53.32
2023-05-13T08:35:40.246Z,52.49
2023-05-13T08:36:40.212Z,52.49
2023-05-13T08:37:40.424Z,52.29
2023-05-13T08:38:40.220Z,52.37
2023-05-13T08:39:40.205Z,50.66
2023-05-13T08:40:40.154Z,52.47
2023-05-13T08:41:40.167Z,52.17
2023-05-13T08:42:40.163Z,51.84
2023-05-13T08:43:40.221Z,50.84
2023-05-13T08:44:40.175Z,51.64
2023-05-13T08:45:40.208Z,51.44
2023-05-13T08:46:40.132Z,49.74
2023-05-13T08:47:40.450Z,49.91
2023-05-13T08:48:40.095Z,50.92
2023-05-13T08:49:40.092Z,51.12
2023-05-13T08:50:40.062Z,50.79
2023-05-13T08:51:40.114Z,50.29
2023-05-13T08:52:40.036Z,48.69
2023-05-13T08:53:40.134Z,50.89
2023-05-13T08:54:40.040Z,48.89
2023-05-13T08:55:40.046Z,49.58
2023-05-13T08:56:39.998Z,49.16
2023-05-13T08:57:40.025Z,49.26
2023-05-13T08:58:39.947Z,48.76
2023-05-13T08:59:39.980Z,50.07
2023-05-13T09:00:39.979Z,48.28
2023-05-13T09:01:39.999Z,49.08
2023-05-13T09:02:40.419Z,49.29
2023-05-13T09:03:39.983Z,48.69
2023-05-13T09:04:39.900Z,48.41
2023-05-13T09:05:40.030Z,49.81
2023-05-13T09:06:39.951Z,49.61
2023-05-13T09:07:39.883Z,49.41
2023-05-13T09:08:39.872Z,50.01
2023-05-13T09:09:39.851Z,50.81
2023-05-13T09:10:39.852Z,49.11
2023-05-13T09:11:40.539Z,49.13
2023-05-13T09:12:42.369Z,49.84
2023-05-13T09:13:39.806Z,49.81
2023-05-13T09:14:39.817Z,48.21
2023-05-13T09:15:39.799Z,46.12
2023-05-13T09:16:39.796Z,47.83
2023-05-13T09:17:39.816Z,49.04
2023-05-13T09:18:39.928Z,49.04
2023-05-13T09:19:39.872Z,47.83
2023-05-13T09:20:39.720Z,47.11
2023-05-13T09:21:39.670Z,46.70
2023-05-13T09:22:39.699Z,46.50
2023-05-13T09:23:39.713Z,47.33
2023-05-13T09:24:39.694Z,48.13
2023-05-13T09:25:39.666Z,47.93
2023-05-13T09:26:39.667Z,47.83
2023-05-13T09:27:39.673Z,47.73
2023-05-13T09:28:39.629Z,48.43
2023-05-13T09:29:39.674Z,49.43
2023-05-13T09:30:39.616Z,48.31
2023-05-13T09:31:39.666Z,48.58
2023-05-13T09:32:39.618Z,48.89
2023-05-13T09:33:39.567Z,48.66
2023-05-13T09:34:39.670Z,47.44
2023-05-13T09:35:39.581Z,46.30
2023-05-13T09:36:39.559Z,46.77
2023-05-13T09:37:39.498Z,45.57
2023-05-13T09:38:39.536Z,45.13
2023-05-13T09:39:39.505Z,44.81
2023-05-13T09:40:39.496Z,42.89
2023-05-13T09:41:39.531Z,43.49
2023-05-13T09:42:39.467Z,44.29
2023-05-13T09:43:39.512Z,43.39
2023-05-13T09:44:39.473Z,43.19
2023-05-13T09:45:39.433Z,43.79
2023-05-13T09:46:39.478Z,43.57
2023-05-13T09:47:39.424Z,43.27
2023-05-13T09:48:39.417Z,42.87
2023-05-13T09:49:39.411Z,42.75
2023-05-13T09:50:39.413Z,42.05
2023-05-13T09:51:39.419Z,41.63
2023-05-13T09:52:39.371Z,41.93
2023-05-13T09:53:39.359Z,40.94
2023-05-13T09:54:39.450Z,39.84
2023-05-13T09:55:39.341Z,37.05
2023-05-13T09:56:39.532Z,36.37
2023-05-13T09:57:39.448Z,38.27
2023-05-13T09:58:39.291Z,37.38
2023-05-13T09:59:39.272Z,37.88
2023-05-13T10:00:39.526Z,36.69
2023-05-13T10:01:39.332Z,37.79
2023-05-13T10:02:39.257Z,38.40
2023-05-13T10:03:39.382Z,37.79
2023-05-13T10:04:39.423Z,38.48
2023-05-13T10:05:39.209Z,38.78
2023-05-13T10:06:39.227Z,39.08
2023-05-13T10:07:39.174Z,37.29
2023-05-13T10:08:39.262Z,35.51
2023-05-13T10:09:39.153Z,36.61
2023-05-13T10:10:39.228Z,35.42
2023-05-13T10:11:39.133Z,35.33
2023-05-13T10:12:39.273Z,37.12
2023-05-13T10:13:39.379Z,35.13
2023-05-13T10:14:39.139Z,37.23
2023-05-13T10:15:39.423Z,38.02
2023-05-13T10:16:40.535Z,38.72
2023-05-13T10:17:39.165Z,39.02
2023-05-13T10:18:39.116Z,38.52
2023-05-13T10:19:39.131Z,39.62
2023-05-13T10:20:39.066Z,40.12
2023-05-13T10:21:39.059Z,40.04
2023-05-13T10:22:39.047Z,40.53
2023-05-13T10:23:39.028Z,41.25
2023-05-13T10:24:39.152Z,41.47
2023-05-13T10:25:39.041Z,41.39
2023-05-13T10:26:39.039Z,42.32
2023-05-13T10:27:38.986Z,42.41
2023-05-13T10:28:38.982Z,42.54
2023-05-13T10:29:38.978Z,43.33
2023-05-13T10:30:39.008Z,44.06
2023-05-13T10:31:39.061Z,44.06
2023-05-13T10:32:38.962Z,43.66
2023-05-13T10:33:38.879Z,45.36
2023-05-13T10:34:38.905Z,44.16
2023-05-13T10:35:41.886Z,44.26
2023-05-13T10:36:38.880Z,43.76
2023-05-13T10:37:38.825Z,43.85
2023-05-13T10:38:39.062Z,43.96
2023-05-13T10:39:38.826Z,44.35
2023-05-13T10:40:38.835Z,44.56
2023-05-13T10:41:38.854Z,45.56
2023-05-13T10:42:38.798Z,45.58
2023-05-13T10:43:38.772Z,45.28
2023-05-13T10:44:38.798Z,46.08
2023-05-13T10:45:38.808Z,45.68
2023-05-13T10:46:38.871Z,45.58
2023-05-13T10:47:38.804Z,46.08
2023-05-13T10:48:38.783Z,46.08
2023-05-13T10:49:38.735Z,45.66
2023-05-13T10:50:38.726Z,45.36
2023-05-13T10:51:38.753Z,46.36
2023-05-13T10:52:38.680Z,46.56
2023-05-13T10:53:38.660Z,45.06
2023-05-13T10:54:38.682Z,45.26
2023-05-13T10:55:38.707Z,45.06
2023-05-13T10:56:38.650Z,44.08
2023-05-13T10:57:38.645Z,44.78
2023-05-13T10:58:38.624Z,44.16
2023-05-13T10:59:38.579Z,44.16
2023-05-13T11:00:38.681Z,45.24
2023-05-13T11:01:38.609Z,45.04
2023-05-13T11:02:38.658Z,43.91
2023-05-13T11:03:38.637Z,44.71
2023-05-13T11:04:38.671Z,44.21
2023-05-13T11:05:38.917Z,44.71
2023-05-13T11:06:38.619Z,44.51
2023-05-13T11:07:38.614Z,44.51
2023-05-13T11:08:38.523Z,43.70
2023-05-13T11:09:38.477Z,43.19
2023-05-13T11:10:38.561Z,42.90
2023-05-13T11:11:38.516Z,40.81
2023-05-13T11:12:38.481Z,42.40
2023-05-13T11:13:38.497Z,41.49
2023-05-13T11:14:38.495Z,41.17
2023-05-13T11:15:38.395Z,40.75
2023-05-13T11:16:38.626Z,39.65
2023-05-13T11:17:38.497Z,39.54
2023-05-13T11:18:38.473Z,40.12
2023-05-13T11:19:38.424Z,40.32
2023-05-13T11:20:51.653Z,40.50
2023-05-13T11:21:39.348Z,40.78
2023-05-13T11:22:38.378Z,39.08
2023-05-13T11:23:38.322Z,36.89
2023-05-13T11:24:38.563Z,37.19
2023-05-13T11:25:38.344Z,36.69
2023-05-13T11:26:38.584Z,36.77
2023-05-13T11:27:38.354Z,36.07
2023-05-13T11:28:38.285Z,35.08
2023-05-13T11:29:38.309Z,34.68
2023-05-13T11:30:38.297Z,35.19
2023-05-13T11:31:38.323Z,34.61
2023-05-13T11:32:38.299Z,35.53
2023-05-13T11:33:38.202Z,34.03
2023-05-13T11:34:38.233Z,36.15
2023-05-13T11:35:38.207Z,35.05
2023-05-13T11:36:38.225Z,35.03
2023-05-13T11:37:38.185Z,34.94
2023-05-13T11:38:38.197Z,35.74
2023-05-13T11:39:38.141Z,35.53
2023-05-13T11:40:38.326Z,35.63
2023-05-13T11:41:38.123Z,36.22
2023-05-13T11:42:38.128Z,36.13
2023-05-13T11:43:38.169Z,36.91
2023-05-13T11:44:38.109Z,35.91
2023-05-13T11:45:38.128Z,35.21
2023-05-13T11:46:38.386Z,33.10
2023-05-13T11:47:38.304Z,33.90
2023-05-13T11:48:38.154Z,33.80
2023-05-13T11:49:38.112Z,34.50
2023-05-13T11:50:38.037Z,33.68
2023-05-13T11:51:38.049Z,34.06
2023-05-13T11:52:38.040Z,34.46
2023-05-13T11:53:38.326Z,34.46
2023-05-13T11:54:38.200Z,32.47
2023-05-13T11:55:37.959Z,32.98
2023-05-13T11:56:38.031Z,34.39
2023-05-13T11:57:37.953Z,34.31
2023-05-13T11:58:37.950Z,34.33
2023-05-13T11:59:45.477Z,34.55
2023-05-13T12:00:38.935Z,35.66
2023-05-13T12:01:37.902Z,35.78
2023-05-13T12:02:38.133Z,36.99
2023-05-13T12:03:37.962Z,36.21
2023-05-13T12:04:37.925Z,38.33
2023-05-13T12:05:38.190Z,37.15
2023-05-13T12:06:37.875Z,37.57
2023-05-13T12:07:37.842Z,38.47
2023-05-13T12:08:37.948Z,38.07
2023-05-13T12:09:37.802Z,38.77
2023-05-13T12:10:37.830Z,39.35
2023-05-13T12:11:37.838Z,38.55
2023-05-13T12:12:37.804Z,38.95
2023-05-13T12:13:37.759Z,38.23
2023-05-13T12:14:38.120Z,37.83
2023-05-13T12:15:38.053Z,38.71
2023-05-13T12:16:37.748Z,36.49
2023-05-13T12:17:37.863Z,36.40
2023-05-13T12:18:37.765Z,38.49
2023-05-13T12:19:37.703Z,37.90
2023-05-13T12:20:37.724Z,38.49
2023-05-13T12:21:37.877Z,39.11
2023-05-13T12:22:37.722Z,39.43
2023-05-13T12:23:37.701Z,39.83
2023-05-13T12:24:38.026Z,39.25
2023-05-13T12:25:37.730Z,40.97
2023-05-13T12:26:37.744Z,40.95
2023-05-13T12:27:37.831Z,41.33
2023-05-13T12:28:37.848Z,40.71
2023-05-13T12:29:37.693Z,40.89
2023-05-13T12:30:37.638Z,39.78
2023-05-13T12:31:37.706Z,39.43
2023-05-13T12:32:37.612Z,37.54
2023-05-13T12:33:37.578Z,38.64
2023-05-13T12:34:37.562Z,37.44
2023-05-13T12:35:37.561Z,38.76
2023-05-13T12:36:37.591Z,39.37
2023-05-13T12:37:37.502Z,38.57
2023-05-13T12:38:37.520Z,37.59
2023-05-13T12:39:37.504Z,37.92
2023-05-13T12:40:37.503Z,38.03
2023-05-13T12:41:37.461Z,39.15
2023-05-13T12:42:37.493Z,39.95
2023-05-13T12:43:37.457Z,39.25
2023-05-13T12:44:37.500Z,40.15
2023-05-13T12:45:39.619Z,40.85
2023-05-13T12:46:37.613Z,41.03
2023-05-13T12:47:37.608Z,39.95
2023-05-13T12:48:37.831Z,39.95
2023-05-13T12:49:37.698Z,40.17
2023-05-13T12:50:37.483Z,40.79
2023-05-13T12:51:38.646Z,40.49
2023-05-13T12:52:37.405Z,41.49